Terminal Aerodrome Forecast
Issued by NWS

Home | Current Version | Previous Version | Text Only | Print | Product List | Glossary Off
Versions: 1 2 3 4 5 6 7 8 9 10 11 12 13 14 15 16 17 18 19 20 21

135
FTUS43 KABR 252123 AAA
TAFMBG
TAF AMD
KMBG 252123Z 2521/2618 01015G23KT P6SM OVC015
     FM261300 35015G23KT P6SM BKN020
     FM261700 35015G23KT P6SM BKN045=

USA.gov is the U.S. government's official web portal to all federal, state and local government web resources and services.